Dubois, Wyoming
Current Conditions -  °F | °C
As of 11:15 AM on Monday 26 Jan 2015 (Local Time) from KAJL Reporting Station
Clear Clear  
Wind Chill:   Ceiling: Unl
Heat Index:   Visibility: 10mi
Dew Point: -7°   Wind: 9mph
Humidity: 42%   Direction: 280°W
Pressure: 30.49"   Gusts: NA
Location:  43.53°N, 109.63°W
Report Text: KAJL 261815Z AUTO 28008KT 10SM CLR 05/M07 A3049 RMK AO2 T00511069
Loading
Personal Weather Stations






























Interactive Weather Map New forecast layout! Learn more

10-Day Weather Forecast

Advertisements
Track Severe Weather on mobile